Time;durP1;ratioP1;P1;durP2;ratioP2;P2;SDS_P1;SDS_P2;PMS_P1;PMS_P2;Temp;Humidity;BMP_temperature;BMP_pressure;BME280_temperature;BME280_humidity;BME280_pressure;Samples;Min_cycle;Max_cycle;Signal;HPM_P1;HPM_P2
2023/07/19 00:01:17;;;;;;;5.05;3.88;;;;;;;;;;5051968;28;20541;-61
2023/07/19 00:03:43;;;;;;;3.75;3.15;;;;;;;;;;5051206;28;20028;-61
2023/07/19 00:06:09;;;;;;;4.95;3.63;;;;;;;;;;5051761;28;20032;-61
2023/07/19 00:08:35;;;;;;;4.30;3.60;;;;;;;;;;5051717;28;20033;-61
2023/07/19 00:11:01;;;;;;;5.82;3.63;;;;;;;;;;5051453;28;20017;-61
2023/07/19 00:13:27;;;;;;;6.35;3.38;;;;;;;;;;5051133;28;20379;-61
2023/07/19 00:15:56;;;;;;;4.90;3.67;;;;;;;;;;5050117;28;20025;-61
2023/07/19 00:18:23;;;;;;;4.88;3.58;;;;;;;;;;5051628;28;20029;-61
2023/07/19 00:20:49;;;;;;;5.18;3.65;;;;;;;;;;5051338;28;20439;-61
2023/07/19 00:23:15;;;;;;;3.75;3.35;;;;;;;;;;5050942;28;20071;-61
2023/07/19 00:25:41;;;;;;;4.45;3.42;;;;;;;;;;5051567;28;20109;-61
2023/07/19 00:28:08;;;;;;;4.72;3.40;;;;;;;;;;5051550;28;20041;-61
2023/07/19 00:30:34;;;;;;;4.72;3.58;;;;;;;;;;5051444;28;20439;-61
2023/07/19 00:33:00;;;;;;;4.03;3.55;;;;;;;;;;5050675;28;20033;-61
2023/07/19 00:35:26;;;;;;;5.15;4.07;;;;;;;;;;5051496;28;20056;-61
2023/07/19 00:37:52;;;;;;;4.18;3.78;;;;;;;;;;5051545;28;20099;-61
2023/07/19 00:40:18;;;;;;;4.20;3.22;;;;;;;;;;5051620;28;20112;-61
2023/07/19 00:42:44;;;;;;;4.05;3.53;;;;;;;;;;5051157;28;20032;-61
2023/07/19 00:45:10;;;;;;;5.65;3.47;;;;;;;;;;5051372;28;20036;-61
2023/07/19 00:47:37;;;;;;;3.80;3.28;;;;;;;;;;5051383;28;20387;-61
2023/07/19 00:50:03;;;;;;;6.05;4.10;;;;;;;;;;5051488;28;20025;-61
2023/07/19 00:52:29;;;;;;;6.60;3.85;;;;;;;;;;5051381;28;20037;-61
2023/07/19 00:54:55;;;;;;;4.60;3.55;;;;;;;;;;5050760;28;20355;-61
2023/07/19 00:57:21;;;;;;;4.07;3.42;;;;;;;;;;5050930;28;20474;-61
2023/07/19 00:59:47;;;;;;;4.32;3.38;;;;;;;;;;5053577;28;20466;-61
2023/07/19 01:02:13;;;;;;;4.22;3.63;;;;;;;;;;5054946;28;20079;-61
2023/07/19 01:04:39;;;;;;;7.32;4.53;;;;;;;;;;5054652;28;20017;-61
2023/07/19 01:07:06;;;;;;;4.53;3.58;;;;;;;;;;5055267;28;20063;-61
2023/07/19 01:09:32;;;;;;;5.18;4.05;;;;;;;;;;5055304;28;20033;-61
2023/07/19 01:11:58;;;;;;;5.78;4.45;;;;;;;;;;5055092;28;20021;-61
2023/07/19 01:14:24;;;;;;;4.93;3.92;;;;;;;;;;5054297;28;20028;-61
2023/07/19 01:16:50;;;;;;;4.70;3.95;;;;;;;;;;5054911;28;20124;-61
2023/07/19 01:19:16;;;;;;;4.40;4.00;;;;;;;;;;5055255;28;20048;-61
2023/07/19 01:21:42;;;;;;;5.32;3.80;;;;;;;;;;5055059;28;20032;-61
2023/07/19 01:24:08;;;;;;;4.47;3.55;;;;;;;;;;5054416;28;20036;-61
2023/07/19 01:26:34;;;;;;;4.20;3.40;;;;;;;;;;5054878;28;20032;-61
2023/07/19 01:29:00;;;;;;;4.28;3.47;;;;;;;;;;5054862;28;20378;-61
2023/07/19 01:31:26;;;;;;;5.00;3.65;;;;;;;;;;5054556;28;20051;-61
2023/07/19 01:33:52;;;;;;;5.70;4.20;;;;;;;;;;5054195;28;20022;-61
2023/07/19 01:36:18;;;;;;;5.32;3.90;;;;;;;;;;5054740;28;20029;-61
2023/07/19 01:38:44;;;;;;;4.80;3.50;;;;;;;;;;5054704;28;20094;-61
2023/07/19 01:41:10;;;;;;;5.05;3.30;;;;;;;;;;5043080;28;20140;-61
2023/07/19 01:43:36;;;;;;;3.95;3.42;;;;;;;;;;5053735;28;20464;-61
2023/07/19 01:46:02;;;;;;;4.50;3.42;;;;;;;;;;5054164;28;20032;-61
2023/07/19 01:48:31;;;;;;;5.13;3.30;;;;;;;;;;5054687;28;20075;-61
2023/07/19 01:50:57;;;;;;;5.43;3.05;;;;;;;;;;5054439;28;20017;-61
2023/07/19 01:53:23;;;;;;;5.68;3.53;;;;;;;;;;5053880;28;20021;-61
2023/07/19 01:55:48;;;;;;;4.65;3.20;;;;;;;;;;5054381;28;20076;-61
2023/07/19 01:58:15;;;;;;;4.10;3.17;;;;;;;;;;5054313;28;20466;-61
2023/07/19 02:00:40;;;;;;;4.85;2.97;;;;;;;;;;5054025;28;20021;-61
2023/07/19 02:03:07;;;;;;;5.07;2.58;;;;;;;;;;5053692;28;20096;-61
2023/07/19 02:05:33;;;;;;;3.83;2.97;;;;;;;;;;5053844;28;20502;-61
2023/07/19 02:07:58;;;;;;;4.13;3.15;;;;;;;;;;5054560;28;20124;-61
2023/07/19 02:10:24;;;;;;;5.03;3.58;;;;;;;;;;5052609;28;20033;-61
2023/07/19 02:12:50;;;;;;;5.40;3.78;;;;;;;;;;5053547;28;20017;-61
2023/07/19 02:15:17;;;;;;;5.18;3.78;;;;;;;;;;5035517;28;20029;-61
2023/07/19 02:17:42;;;;;;;3.50;3.08;;;;;;;;;;5052965;28;20029;-61
2023/07/19 02:20:09;;;;;;;5.40;3.70;;;;;;;;;;5053913;28;20082;-61
2023/07/19 02:22:35;;;;;;;6.30;3.03;;;;;;;;;;5053871;28;20126;-61
2023/07/19 02:25:01;;;;;;;3.95;3.20;;;;;;;;;;5053321;28;20021;-61
2023/07/19 02:27:27;;;;;;;6.35;3.75;;;;;;;;;;5052552;28;20029;-61
2023/07/19 02:29:53;;;;;;;5.13;3.92;;;;;;;;;;5053423;28;20037;-61
2023/07/19 02:32:19;;;;;;;4.57;3.58;;;;;;;;;;5053644;28;20379;-61
2023/07/19 02:34:45;;;;;;;3.75;3.20;;;;;;;;;;5053068;28;20029;-61
2023/07/19 02:37:11;;;;;;;4.32;3.90;;;;;;;;;;5053457;28;20090;-61
2023/07/19 02:39:37;;;;;;;4.93;3.83;;;;;;;;;;5053568;28;20009;-61
2023/07/19 02:42:04;;;;;;;4.60;4.07;;;;;;;;;;5052140;28;20463;-61
2023/07/19 02:44:30;;;;;;;6.38;4.20;;;;;;;;;;5052340;28;20021;-61
2023/07/19 02:46:56;;;;;;;7.68;4.38;;;;;;;;;;5053633;28;20048;-61
2023/07/19 02:49:23;;;;;;;5.10;3.90;;;;;;;;;;5053467;28;20029;-61
2023/07/19 02:51:49;;;;;;;4.28;3.20;;;;;;;;;;5053488;28;20025;-61
2023/07/19 02:54:15;;;;;;;4.55;3.83;;;;;;;;;;5052613;28;20078;-61
2023/07/19 02:56:41;;;;;;;5.07;3.25;;;;;;;;;;5053179;28;20075;-61
2023/07/19 02:59:07;;;;;;;4.28;3.15;;;;;;;;;;5052985;28;20447;-61
2023/07/19 03:01:36;;;;;;;3.63;3.05;;;;;;;;;;5051877;28;20023;-61
2023/07/19 03:04:02;;;;;;;5.50;3.70;;;;;;;;;;5052690;28;20537;-61
2023/07/19 03:06:29;;;;;;;4.28;3.33;;;;;;;;;;5052908;28;20024;-61
2023/07/19 03:08:54;;;;;;;4.82;3.80;;;;;;;;;;5053091;28;20132;-61
2023/07/19 03:11:20;;;;;;;4.85;3.40;;;;;;;;;;5051404;28;20112;-61
2023/07/19 03:13:47;;;;;;;7.32;3.90;;;;;;;;;;5052273;28;20017;-61
2023/07/19 03:16:12;;;;;;;4.80;4.20;;;;;;;;;;5052375;28;20082;-61
2023/07/19 03:18:38;;;;;;;4.63;3.60;;;;;;;;;;5053233;28;20025;-61
2023/07/19 03:21:04;;;;;;;7.18;3.90;;;;;;;;;;5051156;28;20021;-61
2023/07/19 03:23:30;;;;;;;5.65;4.50;;;;;;;;;;5052188;28;20116;-61
2023/07/19 03:25:58;;;;;;;4.70;3.58;;;;;;;;;;5052296;28;20035;-61
2023/07/19 03:28:27;;;;;;;6.13;3.75;;;;;;;;;;5052991;28;20540;-61
2023/07/19 03:30:54;;;;;;;5.28;3.83;;;;;;;;;;5052364;28;20056;-61
2023/07/19 03:33:23;;;;;;;5.95;3.38;;;;;;;;;;5052018;28;20574;-61
2023/07/19 03:35:49;;;;;;;4.20;3.47;;;;;;;;;;5052262;28;20542;-61
2023/07/19 03:38:18;;;;;;;4.95;3.47;;;;;;;;;;5052699;28;20017;-61
2023/07/19 03:40:44;;;;;;;4.43;3.53;;;;;;;;;;5050630;28;20028;-61
2023/07/19 03:43:11;;;;;;;4.95;4.07;;;;;;;;;;5052043;28;20100;-61
2023/07/19 03:45:37;;;;;;;4.15;3.53;;;;;;;;;;5047709;28;20081;-61
2023/07/19 03:48:03;;;;;;;3.60;3.30;;;;;;;;;;5042965;28;20450;-61
2023/07/19 03:50:29;;;;;;;5.68;3.95;;;;;;;;;;5051787;28;20033;-61
2023/07/19 03:52:55;;;;;;;8.70;3.92;;;;;;;;;;5043292;28;20029;-61
2023/07/19 03:55:21;;;;;;;5.13;3.33;;;;;;;;;;5047920;28;20442;-61
2023/07/19 03:57:47;;;;;;;4.57;3.50;;;;;;;;;;5048898;28;20066;-61
2023/07/19 04:00:13;;;;;;;5.80;4.00;;;;;;;;;;5049598;28;20025;-61
2023/07/19 04:02:39;;;;;;;4.85;3.33;;;;;;;;;;5049756;28;20043;-61
2023/07/19 04:05:05;;;;;;;3.47;3.03;;;;;;;;;;5046057;28;20475;-61
2023/07/19 04:07:31;;;;;;;4.38;3.63;;;;;;;;;;5047899;28;20437;-61
2023/07/19 04:09:57;;;;;;;7.15;3.53;;;;;;;;;;5050600;28;20036;-61
2023/07/19 04:12:23;;;;;;;6.03;3.13;;;;;;;;;;5048431;28;20414;-61
2023/07/19 04:14:49;;;;;;;6.28;3.13;;;;;;;;;;5047224;28;20124;-61
2023/07/19 04:17:15;;;;;;;4.43;3.30;;;;;;;;;;5046513;28;20403;-61
2023/07/19 04:19:41;;;;;;;4.75;2.85;;;;;;;;;;5051302;28;20024;-61
2023/07/19 04:22:07;;;;;;;4.38;3.03;;;;;;;;;;5048117;28;20075;-61
2023/07/19 04:24:33;;;;;;;3.70;2.70;;;;;;;;;;5042681;28;20120;-61
2023/07/19 04:26:59;;;;;;;3.83;3.20;;;;;;;;;;5040469;28;20041;-61
2023/07/19 04:29:25;;;;;;;4.95;3.00;;;;;;;;;;5050173;28;20033;-61
2023/07/19 04:31:51;;;;;;;5.13;3.63;;;;;;;;;;5046262;28;20075;-61
2023/07/19 04:34:17;;;;;;;4.70;2.97;;;;;;;;;;5047298;28;20064;-61
2023/07/19 04:36:46;;;;;;;4.88;2.97;;;;;;;;;;5045637;28;20052;-61
2023/07/19 04:39:12;;;;;;;5.20;3.33;;;;;;;;;;5047631;28;20033;-60
2023/07/19 04:41:38;;;;;;;2.72;2.15;;;;;;;;;;5035264;28;20091;-60
2023/07/19 04:44:04;;;;;;;3.90;3.15;;;;;;;;;;5029745;28;20112;-60
2023/07/19 04:46:30;;;;;;;4.43;3.13;;;;;;;;;;5041698;28;20035;-60
2023/07/19 04:48:56;;;;;;;4.47;2.85;;;;;;;;;;5045220;28;20428;-60
2023/07/19 04:51:21;;;;;;;3.35;2.58;;;;;;;;;;5048335;28;20509;-60
2023/07/19 04:53:47;;;;;;;7.38;3.63;;;;;;;;;;5048961;28;20029;-60
2023/07/19 04:56:13;;;;;;;4.50;3.25;;;;;;;;;;5042115;28;20437;-60
2023/07/19 04:58:39;;;;;;;4.55;3.30;;;;;;;;;;5049967;28;20071;-61
2023/07/19 05:01:05;;;;;;;5.18;2.55;;;;;;;;;;5049889;28;20025;-62
2023/07/19 05:03:32;;;;;;;4.90;3.33;;;;;;;;;;5049140;28;20040;-61
2023/07/19 05:05:58;;;;;;;6.63;3.92;;;;;;;;;;5043326;28;20074;-61
2023/07/19 05:08:24;;;;;;;3.38;2.25;;;;;;;;;;5040462;28;20041;-61
2023/07/19 05:10:50;;;;;;;10.13;3.50;;;;;;;;;;5047817;28;20128;-61
2023/07/19 05:13:16;;;;;;;4.93;3.20;;;;;;;;;;5050748;28;20032;-61
2023/07/19 05:15:42;;;;;;;4.45;3.58;;;;;;;;;;5051024;28;20492;-60
2023/07/19 05:18:07;;;;;;;4.25;3.63;;;;;;;;;;5049958;28;20029;-59
2023/07/19 05:20:33;;;;;;;5.07;3.35;;;;;;;;;;5033994;28;20119;-61
2023/07/19 05:22:59;;;;;;;4.72;3.38;;;;;;;;;;5050168;28;20037;-61
2023/07/19 05:25:25;;;;;;;5.78;3.33;;;;;;;;;;5039004;28;20041;-62
2023/07/19 05:27:51;;;;;;;3.95;2.60;;;;;;;;;;5046235;28;20040;-61
2023/07/19 05:30:17;;;;;;;5.55;3.33;;;;;;;;;;5042259;28;20166;-61
2023/07/19 05:32:43;;;;;;;4.82;4.00;;;;;;;;;;5043934;28;20052;-61
2023/07/19 05:35:09;;;;;;;5.15;3.50;;;;;;;;;;5045011;28;20116;-61
2023/07/19 05:37:35;;;;;;;5.70;3.13;;;;;;;;;;5043389;28;20105;-62
2023/07/19 05:40:03;;;;;;;3.10;2.38;;;;;;;;;;5043208;28;20037;-61
2023/07/19 05:42:29;;;;;;;4.50;3.47;;;;;;;;;;5048042;28;20029;-61
2023/07/19 05:44:55;;;;;;;7.30;3.90;;;;;;;;;;5045006;28;20120;-61
2023/07/19 05:47:21;;;;;;;7.30;3.60;;;;;;;;;;5052137;28;20048;-61
2023/07/19 05:49:47;;;;;;;5.72;4.40;;;;;;;;;;5054527;28;20264;-61
2023/07/19 05:52:13;;;;;;;8.80;4.40;;;;;;;;;;5049374;28;20379;-61
2023/07/19 05:54:39;;;;;;;7.63;3.83;;;;;;;;;;5049375;28;20044;-61
2023/07/19 05:57:05;;;;;;;4.95;4.00;;;;;;;;;;5048795;28;20035;-61
2023/07/19 05:59:32;;;;;;;6.30;4.38;;;;;;;;;;5051767;28;20032;-61
2023/07/19 06:01:58;;;;;;;4.20;3.42;;;;;;;;;;5047965;28;20110;-61
2023/07/19 06:04:24;;;;;;;5.65;3.97;;;;;;;;;;5048545;28;20018;-61
2023/07/19 06:06:50;;;;;;;5.57;3.92;;;;;;;;;;5052753;28;20130;-61
2023/07/19 06:09:17;;;;;;;6.53;3.95;;;;;;;;;;5050682;28;20025;-61
2023/07/19 06:11:44;;;;;;;6.25;3.83;;;;;;;;;;5042309;28;20021;-62
2023/07/19 06:14:10;;;;;;;5.82;4.28;;;;;;;;;;5049358;28;20045;-59
2023/07/19 06:16:36;;;;;;;4.07;3.47;;;;;;;;;;5051581;28;20040;-60
2023/07/19 06:19:02;;;;;;;4.78;3.45;;;;;;;;;;5037832;28;20025;-60
2023/07/19 06:21:31;;;;;;;5.50;3.83;;;;;;;;;;5048840;28;20032;-59
2023/07/19 06:23:57;;;;;;;7.68;4.20;;;;;;;;;;5050594;28;20033;-60
2023/07/19 06:26:23;;;;;;;4.53;4.03;;;;;;;;;;5051992;28;20033;-59
2023/07/19 06:28:49;;;;;;;4.70;4.00;;;;;;;;;;5053636;28;20036;-59
2023/07/19 06:31:15;;;;;;;6.50;4.20;;;;;;;;;;5053335;28;20021;-60
2023/07/19 06:33:41;;;;;;;4.82;3.80;;;;;;;;;;5049203;28;20028;-60
2023/07/19 06:36:07;;;;;;;8.68;4.65;;;;;;;;;;5048289;28;20033;-60
2023/07/19 06:38:36;;;;;;;4.70;3.67;;;;;;;;;;5052173;28;20374;-61
2023/07/19 06:41:03;;;;;;;4.53;3.45;;;;;;;;;;5053354;28;20021;-61
2023/07/19 06:43:29;;;;;;;6.22;3.38;;;;;;;;;;5042979;28;20026;-61
2023/07/19 06:45:55;;;;;;;4.63;3.40;;;;;;;;;;5040616;28;20043;-61
2023/07/19 06:48:21;;;;;;;4.35;3.47;;;;;;;;;;5052384;28;20028;-61
2023/07/19 06:50:47;;;;;;;4.88;3.72;;;;;;;;;;5053248;28;20083;-60
2023/07/19 06:53:13;;;;;;;4.18;3.08;;;;;;;;;;5045207;28;20033;-60
2023/07/19 06:55:39;;;;;;;5.85;3.50;;;;;;;;;;5037238;28;20029;-60
2023/07/19 06:58:05;;;;;;;4.45;3.67;;;;;;;;;;5045408;28;20025;-61
2023/07/19 07:00:31;;;;;;;5.07;3.10;;;;;;;;;;5049436;28;20107;-61
2023/07/19 07:02:57;;;;;;;4.40;3.05;;;;;;;;;;5048046;28;20108;-61
2023/07/19 07:05:23;;;;;;;5.05;2.40;;;;;;;;;;5050855;28;20057;-61
2023/07/19 07:07:49;;;;;;;4.90;3.47;;;;;;;;;;5053250;28;20040;-61
2023/07/19 07:10:15;;;;;;;3.45;2.58;;;;;;;;;;5045346;28;20109;-61
2023/07/19 07:12:42;;;;;;;5.45;2.95;;;;;;;;;;5046455;28;20021;-60
2023/07/19 07:15:08;;;;;;;3.53;2.60;;;;;;;;;;5040685;28;20109;-60
2023/07/19 07:17:34;;;;;;;4.97;2.97;;;;;;;;;;5050154;28;20466;-60
2023/07/19 07:20:00;;;;;;;5.05;2.78;;;;;;;;;;5037959;28;20026;-60
2023/07/19 07:22:26;;;;;;;3.50;2.40;;;;;;;;;;5050759;28;20033;-60
2023/07/19 07:24:52;;;;;;;4.20;2.90;;;;;;;;;;5050526;28;20112;-60
2023/07/19 07:27:18;;;;;;;3.58;2.63;;;;;;;;;;5052485;28;20024;-60
2023/07/19 07:29:44;;;;;;;5.40;3.33;;;;;;;;;;5043538;28;20025;-60
2023/07/19 07:32:13;;;;;;;3.55;2.58;;;;;;;;;;5049447;28;20052;-60
2023/07/19 07:34:39;;;;;;;4.43;3.28;;;;;;;;;;5048186;28;20017;-60
2023/07/19 07:37:05;;;;;;;3.33;2.35;;;;;;;;;;5047792;28;20058;-62
2023/07/19 07:39:31;;;;;;;4.65;2.13;;;;;;;;;;5052270;28;20020;-60
2023/07/19 07:41:57;;;;;;;2.83;2.10;;;;;;;;;;5052483;28;20097;-60
2023/07/19 07:44:23;;;;;;;2.75;1.55;;;;;;;;;;5049055;28;20041;-60
2023/07/19 07:46:50;;;;;;;3.40;2.05;;;;;;;;;;5048187;28;20104;-60
2023/07/19 07:49:16;;;;;;;3.75;2.30;;;;;;;;;;5044644;28;20025;-60
2023/07/19 07:51:42;;;;;;;4.05;1.52;;;;;;;;;;5051511;28;20100;-60
2023/07/19 07:54:08;;;;;;;3.10;2.33;;;;;;;;;;5050494;28;20109;-60
2023/07/19 07:56:34;;;;;;;2.35;1.42;;;;;;;;;;5049198;28;20057;-60
2023/07/19 07:59:00;;;;;;;3.00;1.77;;;;;;;;;;5052023;28;20028;-61
2023/07/19 08:01:26;;;;;;;2.88;1.75;;;;;;;;;;5051947;28;20021;-61
2023/07/19 08:03:53;;;;;;;5.15;2.00;;;;;;;;;;5051270;28;20036;-61
2023/07/19 08:06:19;;;;;;;3.00;1.60;;;;;;;;;;5050756;28;20013;-61
2023/07/19 08:08:45;;;;;;;2.88;1.80;;;;;;;;;;5034864;28;20345;-60
2023/07/19 08:11:11;;;;;;;2.17;1.15;;;;;;;;;;5051951;28;20033;-61
2023/07/19 08:13:37;;;;;;;2.25;1.30;;;;;;;;;;5050475;28;20021;-61
2023/07/19 08:16:06;;;;;;;3.25;1.50;;;;;;;;;;5051437;28;20104;-60
2023/07/19 08:18:32;;;;;;;2.40;1.38;;;;;;;;;;5052156;28;20021;-60
2023/07/19 08:20:58;;;;;;;4.75;0.95;;;;;;;;;;5051434;28;20031;-60
2023/07/19 08:23:24;;;;;;;3.40;1.45;;;;;;;;;;5050348;28;20041;-60
2023/07/19 08:25:55;;;;;;;2.50;1.33;;;;;;;;;;5050948;28;20136;-60
2023/07/19 08:28:20;;;;;;;2.30;1.15;;;;;;;;;;5051898;28;20091;-60
2023/07/19 08:30:46;;;;;;;2.55;1.00;;;;;;;;;;5050298;28;20025;-60
2023/07/19 08:33:12;;;;;;;2.33;1.13;;;;;;;;;;5049508;28;20029;-60
2023/07/19 08:35:38;;;;;;;2.40;1.17;;;;;;;;;;5051345;28;20115;-60
2023/07/19 08:38:04;;;;;;;3.03;1.17;;;;;;;;;;5051540;28;20028;-60
2023/07/19 08:40:37;;;;;;;3.97;0.88;;;;;;;;;;5051234;28;20021;-60
2023/07/19 08:43:06;;;;;;;1.23;0.80;;;;;;;;;;5046258;28;20072;-60
2023/07/19 08:45:34;;;;;;;4.32;1.40;;;;;;;;;;5047043;28;20025;-60
2023/07/19 08:48:00;;;;;;;3.15;1.27;;;;;;;;;;5051666;28;20377;-60
2023/07/19 08:50:27;;;;;;;1.65;1.10;;;;;;;;;;5050019;28;20116;-60
2023/07/19 08:52:53;;;;;;;1.85;1.13;;;;;;;;;;5049459;28;20432;-60
2023/07/19 08:55:19;;;;;;;2.97;1.70;;;;;;;;;;5051402;28;20086;-61
2023/07/19 08:57:45;;;;;;;2.72;0.90;;;;;;;;;;5031500;28;20068;-60
2023/07/19 09:00:12;;;;;;;1.52;1.00;;;;;;;;;;5031699;28;20032;-60
2023/07/19 09:02:38;;;;;;;2.00;1.15;;;;;;;;;;5050550;28;20021;-60
2023/07/19 09:05:05;;;;;;;2.20;0.80;;;;;;;;;;5050934;28;20044;-60
2023/07/19 09:07:31;;;;;;;1.85;0.88;;;;;;;;;;5050931;28;20025;-60
2023/07/19 09:09:57;;;;;;;2.47;0.80;;;;;;;;;;5051649;28;20028;-60
2023/07/19 09:12:23;;;;;;;2.97;1.30;;;;;;;;;;5051085;28;20029;-60
2023/07/19 09:14:49;;;;;;;2.72;1.52;;;;;;;;;;5044492;28;20029;-60
2023/07/19 09:17:18;;;;;;;3.00;1.27;;;;;;;;;;5050474;28;20122;-60
2023/07/19 09:19:44;;;;;;;3.85;1.30;;;;;;;;;;5050174;28;20320;-61
2023/07/19 09:22:10;;;;;;;2.40;1.00;;;;;;;;;;5054841;28;20059;-62
2023/07/19 09:24:36;;;;;;;1.95;1.05;;;;;;;;;;5054461;28;20021;-62
2023/07/19 09:27:02;;;;;;;3.35;1.15;;;;;;;;;;5055285;28;20124;-62
2023/07/19 09:29:30;;;;;;;2.33;0.98;;;;;;;;;;5053317;28;20116;-62
2023/07/19 09:32:00;;;;;;;2.42;1.10;;;;;;;;;;5054949;28;20349;-62
2023/07/19 09:34:27;;;;;;;1.52;0.70;;;;;;;;;;5054397;28;20379;-62
2023/07/19 09:36:53;;;;;;;4.57;1.52;;;;;;;;;;5053846;28;20501;-62
2023/07/19 09:39:19;;;;;;;1.48;0.93;;;;;;;;;;5054371;28;20021;-59
2023/07/19 09:41:46;;;;;;;1.65;0.75;;;;;;;;;;5055061;28;20033;-59
2023/07/19 09:44:14;;;;;;;2.47;1.52;;;;;;;;;;5054542;28;20100;-60
2023/07/19 09:46:40;;;;;;;2.22;1.15;;;;;;;;;;5052062;28;20097;-60
2023/07/19 09:49:06;;;;;;;2.33;1.17;;;;;;;;;;5042774;28;20025;-60
2023/07/19 09:51:32;;;;;;;1.70;0.98;;;;;;;;;;5053679;28;20025;-60
2023/07/19 09:54:01;;;;;;;1.70;1.00;;;;;;;;;;5053750;28;20470;-60
2023/07/19 09:56:28;;;;;;;1.60;0.90;;;;;;;;;;5053337;28;20049;-60
2023/07/19 09:58:55;;;;;;;13.40;1.17;;;;;;;;;;5054535;28;20025;-60
2023/07/19 10:01:22;;;;;;;2.42;1.27;;;;;;;;;;5048448;28;20052;-61
2023/07/19 10:03:48;;;;;;;2.70;1.10;;;;;;;;;;5050973;28;20037;-60
2023/07/19 10:06:14;;;;;;;2.40;1.50;;;;;;;;;;5048191;28;20025;-60
2023/07/19 10:08:40;;;;;;;3.78;1.50;;;;;;;;;;5051592;28;20037;-60
2023/07/19 10:11:07;;;;;;;1.98;0.98;;;;;;;;;;5054021;28;20463;-61
2023/07/19 10:13:53;;;;;;;2.50;1.30;;;;;;;;;;5038172;28;20404;-60
2023/07/19 10:16:25;;;;;;;1.83;1.00;;;;;;;;;;5043923;28;20537;-60
2023/07/19 10:19:10;;;;;;;2.78;0.82;;;;;;;;;;5042787;28;20442;-60
2023/07/19 10:21:36;;;;;;;2.80;1.38;;;;;;;;;;5052530;28;20025;-60
2023/07/19 10:24:08;;;;;;;5.68;1.60;;;;;;;;;;5050952;28;20401;-60
2023/07/19 10:26:37;;;;;;;3.05;1.10;;;;;;;;;;5052154;28;20466;-60
2023/07/19 10:29:04;;;;;;;4.00;1.33;;;;;;;;;;5053501;28;20036;-60
2023/07/19 10:31:31;;;;;;;2.47;1.13;;;;;;;;;;5052824;28;20033;-60
2023/07/19 10:33:57;;;;;;;3.13;1.35;;;;;;;;;;5051086;28;20023;-60
2023/07/19 10:36:24;;;;;;;5.00;1.40;;;;;;;;;;5043731;28;20036;-60
2023/07/19 10:38:50;;;;;;;1.92;1.00;;;;;;;;;;5053766;28;20111;-60
2023/07/19 10:41:19;;;;;;;2.70;1.23;;;;;;;;;;5053283;28;20079;-60
2023/07/19 10:43:45;;;;;;;2.63;1.50;;;;;;;;;;5053306;28;20025;-60
2023/07/19 10:46:12;;;;;;;3.72;1.27;;;;;;;;;;5045986;28;20032;-60
2023/07/19 10:48:38;;;;;;;2.20;1.35;;;;;;;;;;5050645;28;20150;-60
2023/07/19 10:51:10;;;;;;;2.08;1.10;;;;;;;;;;5051427;28;20041;-60
2023/07/19 10:53:44;;;;;;;2.25;1.38;;;;;;;;;;5050920;28;20029;-60
2023/07/19 10:56:11;;;;;;;2.50;1.27;;;;;;;;;;5049606;28;20029;-60
2023/07/19 10:58:36;;;;;;;2.67;1.42;;;;;;;;;;5040749;28;20029;-60
2023/07/19 11:01:04;;;;;;;2.03;1.30;;;;;;;;;;5044406;28;20545;-60
2023/07/19 11:03:30;;;;;;;2.47;1.20;;;;;;;;;;5050757;28;20415;-60
2023/07/19 11:05:58;;;;;;;2.00;1.13;;;;;;;;;;5046931;28;20041;-60
2023/07/19 11:08:25;;;;;;;4.95;1.50;;;;;;;;;;5048836;28;20035;-60
2023/07/19 11:10:51;;;;;;;2.10;1.38;;;;;;;;;;5050078;28;20039;-60
2023/07/19 11:13:18;;;;;;;4.03;1.35;;;;;;;;;;5049120;28;20040;-60
2023/07/19 11:15:50;;;;;;;2.20;1.13;;;;;;;;;;5053055;28;20105;-60
2023/07/19 11:18:23;;;;;;;2.92;1.42;;;;;;;;;;5053388;28;20017;-60
2023/07/19 11:20:49;;;;;;;3.85;1.42;;;;;;;;;;5052543;28;20029;-61
2023/07/19 11:23:15;;;;;;;5.00;1.10;;;;;;;;;;5049121;28;20355;-60
2023/07/19 11:25:41;;;;;;;2.15;1.25;;;;;;;;;;5052220;28;20167;-60
2023/07/19 11:28:07;;;;;;;3.55;1.27;;;;;;;;;;5053176;28;20364;-61
2023/07/19 11:30:37;;;;;;;2.03;1.30;;;;;;;;;;5048722;28;20017;-60
2023/07/19 11:33:04;;;;;;;2.90;1.50;;;;;;;;;;5044732;28;20029;-60
2023/07/19 11:35:30;;;;;;;3.05;1.60;;;;;;;;;;5050326;28;20028;-60
2023/07/19 11:37:56;;;;;;;2.75;1.50;;;;;;;;;;5051982;28;20116;-60
2023/07/19 11:40:24;;;;;;;4.25;1.40;;;;;;;;;;5052657;28;20440;-60
2023/07/19 11:42:52;;;;;;;2.67;1.27;;;;;;;;;;5049575;28;20048;-61
2023/07/19 11:45:20;;;;;;;3.35;1.48;;;;;;;;;;5050353;28;20078;-61
2023/07/19 11:47:48;;;;;;;3.13;1.52;;;;;;;;;;5052641;28;20033;-60
2023/07/19 11:50:14;;;;;;;3.22;1.15;;;;;;;;;;5051350;28;20023;-60
2023/07/19 11:52:44;;;;;;;2.15;1.65;;;;;;;;;;5037889;28;20449;-61
2023/07/19 11:55:11;;;;;;;3.30;1.75;;;;;;;;;;5051961;28;20425;-60
2023/07/19 11:57:37;;;;;;;2.33;1.13;;;;;;;;;;5052186;28;20064;-60
2023/07/19 12:00:04;;;;;;;4.95;1.77;;;;;;;;;;5051786;28;20037;-60
2023/07/19 12:02:31;;;;;;;2.28;1.48;;;;;;;;;;5050096;28;20051;-60
2023/07/19 12:04:57;;;;;;;2.83;1.38;;;;;;;;;;5051691;28;20459;-60
2023/07/19 12:07:23;;;;;;;5.57;1.83;;;;;;;;;;5052079;28;20351;-60
2023/07/19 12:09:49;;;;;;;4.53;1.88;;;;;;;;;;5051174;28;20024;-60
2023/07/19 12:12:18;;;;;;;2.30;1.30;;;;;;;;;;5040142;28;20025;-60
2023/07/19 12:14:44;;;;;;;4.10;1.52;;;;;;;;;;5050944;28;20040;-60
2023/07/19 12:17:10;;;;;;;5.30;1.40;;;;;;;;;;5051047;28;20028;-60
2023/07/19 12:19:36;;;;;;;2.35;1.02;;;;;;;;;;5050051;28;20021;-60
2023/07/19 12:22:04;;;;;;;2.67;1.77;;;;;;;;;;5039042;28;20065;-60
2023/07/19 12:24:30;;;;;;;4.78;1.42;;;;;;;;;;5049238;28;20036;-60
2023/07/19 12:26:56;;;;;;;4.68;1.50;;;;;;;;;;5051396;28;20112;-60
2023/07/19 12:29:25;;;;;;;5.75;1.50;;;;;;;;;;5051803;28;20052;-60
2023/07/19 12:31:51;;;;;;;4.90;1.42;;;;;;;;;;5049812;28;20417;-60
2023/07/19 12:34:20;;;;;;;3.13;1.77;;;;;;;;;;5050817;28;20117;-60
2023/07/19 12:36:47;;;;;;;2.40;1.60;;;;;;;;;;5051413;28;20029;-60
2023/07/19 12:39:13;;;;;;;2.95;2.00;;;;;;;;;;5051413;28;20112;-60
2023/07/19 12:41:39;;;;;;;2.95;1.95;;;;;;;;;;5050904;28;20032;-60
2023/07/19 12:44:06;;;;;;;2.70;1.70;;;;;;;;;;5045707;28;20026;-60
2023/07/19 12:46:32;;;;;;;3.03;1.95;;;;;;;;;;5046794;28;20028;-60
2023/07/19 12:48:58;;;;;;;3.53;1.90;;;;;;;;;;5051295;28;20029;-60
2023/07/19 12:51:24;;;;;;;2.45;1.38;;;;;;;;;;5051056;28;20418;-60
2023/07/19 12:53:50;;;;;;;2.90;1.60;;;;;;;;;;5050706;28;20029;-60
2023/07/19 12:56:16;;;;;;;3.38;1.90;;;;;;;;;;5053617;28;20029;-60
2023/07/19 12:58:42;;;;;;;3.35;2.00;;;;;;;;;;5055580;28;20021;-60
2023/07/19 13:01:08;;;;;;;3.38;1.77;;;;;;;;;;5055146;28;20017;-60
2023/07/19 13:03:34;;;;;;;4.97;2.25;;;;;;;;;;5055020;28;20032;-60
2023/07/19 13:06:00;;;;;;;2.67;2.10;;;;;;;;;;5053840;28;20052;-60
2023/07/19 13:08:27;;;;;;;2.22;1.60;;;;;;;;;;5055264;28;20033;-60
2023/07/19 13:10:53;;;;;;;4.25;2.55;;;;;;;;;;5055311;28;20029;-60
2023/07/19 13:13:19;;;;;;;8.55;2.22;;;;;;;;;;5054806;28;20459;-60
2023/07/19 13:15:44;;;;;;;3.33;2.28;;;;;;;;;;5051842;28;20083;-60
2023/07/19 13:18:10;;;;;;;2.85;1.52;;;;;;;;;;5053207;28;20502;-60
2023/07/19 13:20:36;;;;;;;4.57;1.65;;;;;;;;;;5055276;28;20020;-60
2023/07/19 13:23:02;;;;;;;3.47;2.33;;;;;;;;;;5054376;28;20091;-60
2023/07/19 13:25:28;;;;;;;4.25;2.22;;;;;;;;;;5053839;28;20032;-60
2023/07/19 13:27:54;;;;;;;2.83;2.20;;;;;;;;;;5055276;28;20021;-60
2023/07/19 13:30:20;;;;;;;6.80;2.22;;;;;;;;;;5053515;28;20029;-60
2023/07/19 13:32:46;;;;;;;4.50;2.80;;;;;;;;;;5043104;28;20071;-61
2023/07/19 13:35:12;;;;;;;3.60;2.15;;;;;;;;;;5053407;28;20033;-60
2023/07/19 13:37:38;;;;;;;3.00;2.50;;;;;;;;;;5054707;28;20471;-60
2023/07/19 13:40:07;;;;;;;7.03;2.50;;;;;;;;;;5055029;28;20025;-60
2023/07/19 13:42:37;;;;;;;3.15;2.63;;;;;;;;;;5054316;28;20063;-60
2023/07/19 13:45:03;;;;;;;3.40;2.15;;;;;;;;;;5051055;28;20119;-60
2023/07/19 13:47:29;;;;;;;4.70;2.72;;;;;;;;;;5050347;28;20032;-60
2023/07/19 13:49:55;;;;;;;4.82;2.17;;;;;;;;;;5055004;28;20029;-60
2023/07/19 13:52:21;;;;;;;3.97;2.40;;;;;;;;;;5054006;28;20394;-60
2023/07/19 13:54:48;;;;;;;2.55;1.77;;;;;;;;;;5053398;28;20036;-60
2023/07/19 13:57:14;;;;;;;3.28;2.40;;;;;;;;;;5053995;28;20386;-60
2023/07/19 13:59:40;;;;;;;3.40;2.22;;;;;;;;;;5054523;28;20466;-60
2023/07/19 14:02:06;;;;;;;3.95;2.35;;;;;;;;;;5050178;28;20092;-60
2023/07/19 14:04:32;;;;;;;3.95;2.70;;;;;;;;;;5053222;28;20024;-60
2023/07/19 14:06:58;;;;;;;2.83;2.10;;;;;;;;;;5054307;28;20051;-60
2023/07/19 14:09:24;;;;;;;3.67;2.63;;;;;;;;;;5054448;28;20054;-60
2023/07/19 14:11:53;;;;;;;3.13;2.42;;;;;;;;;;5052783;28;20024;-60
2023/07/19 14:14:19;;;;;;;4.72;2.28;;;;;;;;;;5051989;28;20033;-60
2023/07/19 14:16:45;;;;;;;2.60;1.85;;;;;;;;;;5052039;28;20110;-60
2023/07/19 14:19:11;;;;;;;4.55;2.60;;;;;;;;;;5054200;28;20028;-60
2023/07/19 14:21:37;;;;;;;3.55;2.40;;;;;;;;;;5050883;28;20029;-60
2023/07/19 14:24:03;;;;;;;4.00;2.25;;;;;;;;;;5050290;28;20471;-60
2023/07/19 14:26:29;;;;;;;7.97;2.10;;;;;;;;;;5053859;28;20114;-60
2023/07/19 14:28:55;;;;;;;3.55;1.88;;;;;;;;;;5054184;28;20451;-60
2023/07/19 14:31:21;;;;;;;3.97;3.05;;;;;;;;;;5048307;28;20482;-60
2023/07/19 14:33:47;;;;;;;3.70;2.03;;;;;;;;;;5047246;28;20040;-60
2023/07/19 14:36:14;;;;;;;3.53;2.05;;;;;;;;;;5053734;28;20024;-61
2023/07/19 14:38:40;;;;;;;5.57;1.83;;;;;;;;;;5041400;28;20120;-60